sensor_id;sensor_type;location;lat;lon;timestamp;P1;durP1;ratioP1;P2;durP2;ratioP2
71606;SDS011;60641;53.556;9.914;2022-08-19T00:01:38;9.20;;;3.70;;
71606;SDS011;60641;53.556;9.914;2022-08-19T00:04:06;8.90;;;3.90;;
71606;SDS011;60641;53.556;9.914;2022-08-19T00:06:35;9.50;;;3.60;;
71606;SDS011;60641;53.556;9.914;2022-08-19T00:09:02;9.60;;;4.30;;
71606;SDS011;60641;53.556;9.914;2022-08-19T00:11:30;10.30;;;4.00;;
71606;SDS011;60641;53.556;9.914;2022-08-19T00:13:57;8.60;;;4.30;;
71606;SDS011;60641;53.556;9.914;2022-08-19T00:16:25;7.90;;;4.30;;
71606;SDS011;60641;53.556;9.914;2022-08-19T00:18:52;9.10;;;4.50;;
71606;SDS011;60641;53.556;9.914;2022-08-19T00:21:21;9.30;;;4.30;;
71606;SDS011;60641;53.556;9.914;2022-08-19T00:23:48;9.10;;;4.80;;
71606;SDS011;60641;53.556;9.914;2022-08-19T00:26:15;9.20;;;4.10;;
71606;SDS011;60641;53.556;9.914;2022-08-19T00:28:42;11.20;;;5.60;;
71606;SDS011;60641;53.556;9.914;2022-08-19T00:31:09;11.70;;;6.40;;
71606;SDS011;60641;53.556;9.914;2022-08-19T00:33:36;15.30;;;7.10;;
71606;SDS011;60641;53.556;9.914;2022-08-19T00:36:03;11.60;;;5.70;;
71606;SDS011;60641;53.556;9.914;2022-08-19T00:38:33;13.80;;;6.80;;
71606;SDS011;60641;53.556;9.914;2022-08-19T00:41:00;11.60;;;6.70;;
71606;SDS011;60641;53.556;9.914;2022-08-19T00:43:27;10.80;;;6.20;;
71606;SDS011;60641;53.556;9.914;2022-08-19T00:45:54;11.90;;;7.30;;
71606;SDS011;60641;53.556;9.914;2022-08-19T00:48:20;12.50;;;7.60;;
71606;SDS011;60641;53.556;9.914;2022-08-19T00:50:48;13.60;;;7.20;;
71606;SDS011;60641;53.556;9.914;2022-08-19T00:53:17;12.10;;;7.10;;
71606;SDS011;60641;53.556;9.914;2022-08-19T00:55:46;15.90;;;7.70;;
71606;SDS011;60641;53.556;9.914;2022-08-19T00:58:15;12.40;;;7.10;;
71606;SDS011;60641;53.556;9.914;2022-08-19T01:00:43;13.40;;;7.80;;
71606;SDS011;60641;53.556;9.914;2022-08-19T01:03:11;18.60;;;9.60;;
71606;SDS011;60641;53.556;9.914;2022-08-19T01:05:41;18.70;;;9.40;;
71606;SDS011;60641;53.556;9.914;2022-08-19T01:08:09;19.10;;;9.20;;
71606;SDS011;60641;53.556;9.914;2022-08-19T01:10:40;17.30;;;8.70;;
71606;SDS011;60641;53.556;9.914;2022-08-19T01:13:08;16.60;;;8.70;;
71606;SDS011;60641;53.556;9.914;2022-08-19T01:15:38;16.40;;;8.50;;
71606;SDS011;60641;53.556;9.914;2022-08-19T01:18:08;18.10;;;10.10;;
71606;SDS011;60641;53.556;9.914;2022-08-19T01:20:37;17.00;;;9.80;;
71606;SDS011;60641;53.556;9.914;2022-08-19T01:23:05;15.70;;;9.40;;
71606;SDS011;60641;53.556;9.914;2022-08-19T01:25:50;18.50;;;9.20;;
71606;SDS011;60641;53.556;9.914;2022-08-19T01:28:25;20.10;;;10.10;;
71606;SDS011;60641;53.556;9.914;2022-08-19T01:30:53;15.50;;;8.80;;
71606;SDS011;60641;53.556;9.914;2022-08-19T01:33:20;16.30;;;9.30;;
71606;SDS011;60641;53.556;9.914;2022-08-19T01:35:47;16.40;;;8.60;;
71606;SDS011;60641;53.556;9.914;2022-08-19T01:38:22;15.80;;;8.10;;
71606;SDS011;60641;53.556;9.914;2022-08-19T01:40:51;16.50;;;8.20;;
71606;SDS011;60641;53.556;9.914;2022-08-19T01:43:18;15.90;;;8.90;;
71606;SDS011;60641;53.556;9.914;2022-08-19T01:45:45;15.20;;;8.00;;
71606;SDS011;60641;53.556;9.914;2022-08-19T01:48:12;18.90;;;9.00;;
71606;SDS011;60641;53.556;9.914;2022-08-19T01:50:39;14.70;;;8.70;;
71606;SDS011;60641;53.556;9.914;2022-08-19T01:53:06;18.70;;;9.60;;
71606;SDS011;60641;53.556;9.914;2022-08-19T01:55:36;15.10;;;9.60;;
71606;SDS011;60641;53.556;9.914;2022-08-19T01:58:06;15.70;;;8.90;;
71606;SDS011;60641;53.556;9.914;2022-08-19T02:00:36;19.50;;;10.50;;
71606;SDS011;60641;53.556;9.914;2022-08-19T02:03:03;20.90;;;10.60;;
71606;SDS011;60641;53.556;9.914;2022-08-19T02:05:29;19.90;;;10.20;;
71606;SDS011;60641;53.556;9.914;2022-08-19T02:07:56;23.00;;;10.50;;
71606;SDS011;60641;53.556;9.914;2022-08-19T02:10:23;19.30;;;9.40;;
71606;SDS011;60641;53.556;9.914;2022-08-19T02:12:49;19.90;;;10.70;;
71606;SDS011;60641;53.556;9.914;2022-08-19T02:15:16;18.60;;;10.00;;
71606;SDS011;60641;53.556;9.914;2022-08-19T02:17:45;17.00;;;9.10;;
71606;SDS011;60641;53.556;9.914;2022-08-19T02:20:12;20.40;;;10.20;;
71606;SDS011;60641;53.556;9.914;2022-08-19T02:22:39;21.30;;;10.90;;
71606;SDS011;60641;53.556;9.914;2022-08-19T02:25:09;21.60;;;11.00;;
71606;SDS011;60641;53.556;9.914;2022-08-19T02:27:37;23.60;;;11.80;;
71606;SDS011;60641;53.556;9.914;2022-08-19T02:30:09;24.70;;;10.90;;
71606;SDS011;60641;53.556;9.914;2022-08-19T02:32:38;23.10;;;10.80;;
71606;SDS011;60641;53.556;9.914;2022-08-19T02:35:05;24.60;;;11.30;;
71606;SDS011;60641;53.556;9.914;2022-08-19T02:37:32;21.80;;;11.10;;
71606;SDS011;60641;53.556;9.914;2022-08-19T02:40:16;21.70;;;11.00;;
71606;SDS011;60641;53.556;9.914;2022-08-19T02:42:44;24.50;;;12.20;;
71606;SDS011;60641;53.556;9.914;2022-08-19T02:45:12;24.40;;;11.00;;
71606;SDS011;60641;53.556;9.914;2022-08-19T02:47:39;22.00;;;10.50;;
71606;SDS011;60641;53.556;9.914;2022-08-19T02:50:06;21.70;;;11.10;;
71606;SDS011;60641;53.556;9.914;2022-08-19T02:52:33;26.00;;;12.90;;
71606;SDS011;60641;53.556;9.914;2022-08-19T02:54:59;28.30;;;12.40;;
71606;SDS011;60641;53.556;9.914;2022-08-19T02:57:27;31.20;;;13.50;;
71606;SDS011;60641;53.556;9.914;2022-08-19T02:59:53;25.00;;;11.80;;
71606;SDS011;60641;53.556;9.914;2022-08-19T03:02:20;24.80;;;11.00;;
71606;SDS011;60641;53.556;9.914;2022-08-19T03:04:46;29.60;;;14.40;;
71606;SDS011;60641;53.556;9.914;2022-08-19T03:07:13;30.40;;;13.00;;
71606;SDS011;60641;53.556;9.914;2022-08-19T03:09:41;29.40;;;13.40;;
71606;SDS011;60641;53.556;9.914;2022-08-19T03:12:09;28.80;;;14.00;;
71606;SDS011;60641;53.556;9.914;2022-08-19T03:14:36;25.60;;;12.10;;
71606;SDS011;60641;53.556;9.914;2022-08-19T03:17:03;30.10;;;13.70;;
71606;SDS011;60641;53.556;9.914;2022-08-19T03:19:31;32.80;;;14.50;;
71606;SDS011;60641;53.556;9.914;2022-08-19T03:21:57;34.50;;;15.00;;
71606;SDS011;60641;53.556;9.914;2022-08-19T03:24:24;35.30;;;14.50;;
71606;SDS011;60641;53.556;9.914;2022-08-19T03:26:52;27.70;;;12.70;;
71606;SDS011;60641;53.556;9.914;2022-08-19T03:29:24;27.80;;;13.70;;
71606;SDS011;60641;53.556;9.914;2022-08-19T03:31:53;29.20;;;12.90;;
71606;SDS011;60641;53.556;9.914;2022-08-19T03:34:22;26.70;;;13.10;;
71606;SDS011;60641;53.556;9.914;2022-08-19T03:36:57;29.40;;;13.20;;
71606;SDS011;60641;53.556;9.914;2022-08-19T03:39:25;27.20;;;12.30;;
71606;SDS011;60641;53.556;9.914;2022-08-19T03:41:52;21.30;;;10.70;;
71606;SDS011;60641;53.556;9.914;2022-08-19T03:44:23;25.10;;;12.30;;
71606;SDS011;60641;53.556;9.914;2022-08-19T03:46:53;23.30;;;11.40;;
71606;SDS011;60641;53.556;9.914;2022-08-19T03:49:22;29.90;;;13.50;;
71606;SDS011;60641;53.556;9.914;2022-08-19T03:51:50;27.90;;;13.70;;
71606;SDS011;60641;53.556;9.914;2022-08-19T03:54:18;31.40;;;12.40;;
71606;SDS011;60641;53.556;9.914;2022-08-19T03:56:47;28.00;;;12.90;;
71606;SDS011;60641;53.556;9.914;2022-08-19T03:59:19;26.30;;;13.90;;
71606;SDS011;60641;53.556;9.914;2022-08-19T04:01:49;26.70;;;13.00;;
71606;SDS011;60641;53.556;9.914;2022-08-19T04:04:15;25.00;;;12.40;;
71606;SDS011;60641;53.556;9.914;2022-08-19T04:06:42;29.40;;;15.40;;
71606;SDS011;60641;53.556;9.914;2022-08-19T04:09:09;29.30;;;14.50;;
71606;SDS011;60641;53.556;9.914;2022-08-19T04:11:38;30.80;;;15.20;;
71606;SDS011;60641;53.556;9.914;2022-08-19T04:14:08;31.70;;;14.90;;
71606;SDS011;60641;53.556;9.914;2022-08-19T04:16:35;31.50;;;14.90;;
71606;SDS011;60641;53.556;9.914;2022-08-19T04:19:03;29.80;;;15.20;;
71606;SDS011;60641;53.556;9.914;2022-08-19T04:21:30;27.60;;;13.90;;
71606;SDS011;60641;53.556;9.914;2022-08-19T04:23:57;28.70;;;13.30;;
71606;SDS011;60641;53.556;9.914;2022-08-19T04:26:26;28.70;;;14.30;;
71606;SDS011;60641;53.556;9.914;2022-08-19T04:28:54;28.00;;;14.50;;
71606;SDS011;60641;53.556;9.914;2022-08-19T04:31:23;21.60;;;11.00;;
71606;SDS011;60641;53.556;9.914;2022-08-19T04:33:54;28.90;;;13.00;;
71606;SDS011;60641;53.556;9.914;2022-08-19T04:36:24;21.30;;;11.20;;
71606;SDS011;60641;53.556;9.914;2022-08-19T04:38:59;25.60;;;12.90;;
71606;SDS011;60641;53.556;9.914;2022-08-19T04:41:28;25.90;;;12.00;;
71606;SDS011;60641;53.556;9.914;2022-08-19T04:44:13;23.20;;;11.40;;
71606;SDS011;60641;53.556;9.914;2022-08-19T04:46:44;29.50;;;12.90;;
71606;SDS011;60641;53.556;9.914;2022-08-19T04:49:11;24.80;;;12.10;;
71606;SDS011;60641;53.556;9.914;2022-08-19T04:51:40;22.70;;;11.60;;
71606;SDS011;60641;53.556;9.914;2022-08-19T04:54:08;27.20;;;12.80;;
71606;SDS011;60641;53.556;9.914;2022-08-19T04:56:34;23.30;;;11.40;;
71606;SDS011;60641;53.556;9.914;2022-08-19T04:59:01;26.60;;;12.60;;
71606;SDS011;60641;53.556;9.914;2022-08-19T05:01:31;24.70;;;11.90;;
71606;SDS011;60641;53.556;9.914;2022-08-19T05:04:00;22.20;;;12.80;;
71606;SDS011;60641;53.556;9.914;2022-08-19T05:06:27;24.00;;;11.70;;
71606;SDS011;60641;53.556;9.914;2022-08-19T05:08:54;24.70;;;13.20;;
71606;SDS011;60641;53.556;9.914;2022-08-19T05:11:24;25.00;;;12.90;;
71606;SDS011;60641;53.556;9.914;2022-08-19T05:13:52;24.20;;;11.10;;
71606;SDS011;60641;53.556;9.914;2022-08-19T05:16:19;27.80;;;12.60;;
71606;SDS011;60641;53.556;9.914;2022-08-19T05:18:48;26.10;;;12.80;;
71606;SDS011;60641;53.556;9.914;2022-08-19T05:21:33;27.80;;;12.40;;
71606;SDS011;60641;53.556;9.914;2022-08-19T05:24:18;26.90;;;11.90;;
71606;SDS011;60641;53.556;9.914;2022-08-19T05:26:46;23.90;;;11.30;;
71606;SDS011;60641;53.556;9.914;2022-08-19T05:29:15;24.80;;;11.70;;
71606;SDS011;60641;53.556;9.914;2022-08-19T05:31:43;22.80;;;10.60;;
71606;SDS011;60641;53.556;9.914;2022-08-19T05:34:10;23.20;;;10.90;;
71606;SDS011;60641;53.556;9.914;2022-08-19T05:36:38;20.30;;;10.20;;
71606;SDS011;60641;53.556;9.914;2022-08-19T05:39:06;21.20;;;11.40;;
71606;SDS011;60641;53.556;9.914;2022-08-19T05:41:34;22.80;;;10.60;;
71606;SDS011;60641;53.556;9.914;2022-08-19T05:44:01;18.70;;;9.20;;
71606;SDS011;60641;53.556;9.914;2022-08-19T05:46:28;22.20;;;8.40;;
71606;SDS011;60641;53.556;9.914;2022-08-19T05:48:55;20.30;;;7.90;;
71606;SDS011;60641;53.556;9.914;2022-08-19T05:51:23;15.60;;;6.80;;
71606;SDS011;60641;53.556;9.914;2022-08-19T05:53:50;17.50;;;7.90;;
71606;SDS011;60641;53.556;9.914;2022-08-19T05:56:17;16.80;;;8.40;;
71606;SDS011;60641;53.556;9.914;2022-08-19T05:58:44;16.90;;;8.60;;
71606;SDS011;60641;53.556;9.914;2022-08-19T06:01:13;16.60;;;7.60;;
71606;SDS011;60641;53.556;9.914;2022-08-19T06:03:41;16.80;;;7.30;;
71606;SDS011;60641;53.556;9.914;2022-08-19T06:06:09;15.10;;;6.90;;
71606;SDS011;60641;53.556;9.914;2022-08-19T06:08:37;13.60;;;6.40;;
71606;SDS011;60641;53.556;9.914;2022-08-19T06:13:52;17.80;;;7.40;;
71606;SDS011;60641;53.556;9.914;2022-08-19T06:16:19;13.80;;;6.20;;
71606;SDS011;60641;53.556;9.914;2022-08-19T06:18:50;19.30;;;6.30;;
71606;SDS011;60641;53.556;9.914;2022-08-19T06:21:20;14.40;;;6.10;;
71606;SDS011;60641;53.556;9.914;2022-08-19T06:23:48;12.90;;;6.00;;
71606;SDS011;60641;53.556;9.914;2022-08-19T06:26:17;11.50;;;5.00;;
71606;SDS011;60641;53.556;9.914;2022-08-19T06:28:45;14.50;;;5.20;;
71606;SDS011;60641;53.556;9.914;2022-08-19T06:31:16;14.10;;;6.80;;
71606;SDS011;60641;53.556;9.914;2022-08-19T06:33:44;17.40;;;6.20;;
71606;SDS011;60641;53.556;9.914;2022-08-19T06:38:43;16.60;;;5.50;;
71606;SDS011;60641;53.556;9.914;2022-08-19T06:41:10;16.60;;;6.40;;
71606;SDS011;60641;53.556;9.914;2022-08-19T06:43:37;14.70;;;6.10;;
71606;SDS011;60641;53.556;9.914;2022-08-19T06:46:03;12.20;;;5.70;;
71606;SDS011;60641;53.556;9.914;2022-08-19T06:48:30;11.40;;;4.80;;
71606;SDS011;60641;53.556;9.914;2022-08-19T06:50:57;12.20;;;5.50;;
71606;SDS011;60641;53.556;9.914;2022-08-19T06:53:23;15.20;;;4.80;;
71606;SDS011;60641;53.556;9.914;2022-08-19T06:55:50;14.30;;;5.40;;
71606;SDS011;60641;53.556;9.914;2022-08-19T06:58:26;13.30;;;5.10;;
71606;SDS011;60641;53.556;9.914;2022-08-19T07:00:52;14.90;;;5.50;;
71606;SDS011;60641;53.556;9.914;2022-08-19T07:03:19;16.10;;;5.40;;
71606;SDS011;60641;53.556;9.914;2022-08-19T07:05:45;12.30;;;5.20;;
71606;SDS011;60641;53.556;9.914;2022-08-19T07:08:12;14.90;;;5.20;;
71606;SDS011;60641;53.556;9.914;2022-08-19T07:10:42;15.60;;;5.00;;
71606;SDS011;60641;53.556;9.914;2022-08-19T07:13:10;11.70;;;4.10;;
71606;SDS011;60641;53.556;9.914;2022-08-19T07:15:37;11.20;;;4.90;;
71606;SDS011;60641;53.556;9.914;2022-08-19T07:18:03;12.60;;;5.00;;
71606;SDS011;60641;53.556;9.914;2022-08-19T07:20:30;12.90;;;4.80;;
71606;SDS011;60641;53.556;9.914;2022-08-19T07:22:58;12.60;;;4.90;;
71606;SDS011;60641;53.556;9.914;2022-08-19T07:25:25;14.40;;;3.90;;
71606;SDS011;60641;53.556;9.914;2022-08-19T07:27:51;11.30;;;4.30;;
71606;SDS011;60641;53.556;9.914;2022-08-19T07:30:18;12.90;;;4.20;;
71606;SDS011;60641;53.556;9.914;2022-08-19T07:32:45;13.90;;;4.30;;
71606;SDS011;60641;53.556;9.914;2022-08-19T07:35:11;11.00;;;3.40;;
71606;SDS011;60641;53.556;9.914;2022-08-19T07:37:37;10.60;;;3.70;;
71606;SDS011;60641;53.556;9.914;2022-08-19T07:40:06;11.40;;;4.30;;
71606;SDS011;60641;53.556;9.914;2022-08-19T07:42:33;9.40;;;3.80;;
71606;SDS011;60641;53.556;9.914;2022-08-19T07:44:59;10.30;;;3.90;;
71606;SDS011;60641;53.556;9.914;2022-08-19T07:47:26;12.70;;;4.10;;
71606;SDS011;60641;53.556;9.914;2022-08-19T07:49:54;10.10;;;4.20;;
71606;SDS011;60641;53.556;9.914;2022-08-19T07:52:20;11.00;;;4.00;;
71606;SDS011;60641;53.556;9.914;2022-08-19T07:54:47;12.40;;;4.20;;
71606;SDS011;60641;53.556;9.914;2022-08-19T07:57:13;11.90;;;4.30;;
71606;SDS011;60641;53.556;9.914;2022-08-19T07:59:40;12.90;;;4.50;;
71606;SDS011;60641;53.556;9.914;2022-08-19T08:02:06;11.90;;;4.80;;
71606;SDS011;60641;53.556;9.914;2022-08-19T08:04:34;8.70;;;4.60;;
71606;SDS011;60641;53.556;9.914;2022-08-19T08:07:19;10.70;;;4.70;;
71606;SDS011;60641;53.556;9.914;2022-08-19T08:10:05;13.90;;;4.40;;
71606;SDS011;60641;53.556;9.914;2022-08-19T08:12:35;11.40;;;4.40;;
71606;SDS011;60641;53.556;9.914;2022-08-19T08:15:09;11.50;;;4.70;;
71606;SDS011;60641;53.556;9.914;2022-08-19T08:17:42;14.10;;;4.90;;
71606;SDS011;60641;53.556;9.914;2022-08-19T08:20:10;13.60;;;4.50;;
71606;SDS011;60641;53.556;9.914;2022-08-19T08:22:36;11.80;;;4.90;;
71606;SDS011;60641;53.556;9.914;2022-08-19T08:25:35;10.70;;;4.70;;
71606;SDS011;60641;53.556;9.914;2022-08-19T08:28:02;12.40;;;4.60;;
71606;SDS011;60641;53.556;9.914;2022-08-19T08:30:29;12.20;;;6.20;;
71606;SDS011;60641;53.556;9.914;2022-08-19T08:32:58;13.40;;;6.00;;
71606;SDS011;60641;53.556;9.914;2022-08-19T08:35:25;11.90;;;6.00;;
71606;SDS011;60641;53.556;9.914;2022-08-19T08:37:52;12.30;;;6.30;;
71606;SDS011;60641;53.556;9.914;2022-08-19T08:40:42;16.90;;;6.70;;
71606;SDS011;60641;53.556;9.914;2022-08-19T08:43:29;16.20;;;6.80;;
71606;SDS011;60641;53.556;9.914;2022-08-19T08:46:07;14.90;;;7.20;;
71606;SDS011;60641;53.556;9.914;2022-08-19T08:48:40;15.30;;;6.40;;
71606;SDS011;60641;53.556;9.914;2022-08-19T08:51:14;15.00;;;7.50;;
71606;SDS011;60641;53.556;9.914;2022-08-19T08:53:44;16.90;;;7.50;;
71606;SDS011;60641;53.556;9.914;2022-08-19T08:56:13;17.30;;;7.30;;
71606;SDS011;60641;53.556;9.914;2022-08-19T08:58:44;12.90;;;6.70;;
71606;SDS011;60641;53.556;9.914;2022-08-19T09:01:17;18.00;;;7.90;;
71606;SDS011;60641;53.556;9.914;2022-08-19T09:03:43;15.60;;;7.00;;
71606;SDS011;60641;53.556;9.914;2022-08-19T09:12:08;23.80;;;8.40;;
71606;SDS011;60641;53.556;9.914;2022-08-19T09:17:14;17.30;;;7.40;;
71606;SDS011;60641;53.556;9.914;2022-08-19T09:19:54;19.20;;;7.10;;
71606;SDS011;60641;53.556;9.914;2022-08-19T09:22:28;15.50;;;6.70;;
71606;SDS011;60641;53.556;9.914;2022-08-19T09:24:54;13.90;;;6.30;;
71606;SDS011;60641;53.556;9.914;2022-08-19T09:27:21;12.90;;;5.90;;
71606;SDS011;60641;53.556;9.914;2022-08-19T09:29:50;15.20;;;6.80;;
71606;SDS011;60641;53.556;9.914;2022-08-19T09:32:17;14.30;;;6.40;;
71606;SDS011;60641;53.556;9.914;2022-08-19T09:34:44;16.40;;;6.50;;
71606;SDS011;60641;53.556;9.914;2022-08-19T09:37:11;14.80;;;7.20;;
71606;SDS011;60641;53.556;9.914;2022-08-19T09:39:38;13.20;;;6.70;;
71606;SDS011;60641;53.556;9.914;2022-08-19T09:42:07;14.20;;;6.40;;
71606;SDS011;60641;53.556;9.914;2022-08-19T09:44:38;16.60;;;7.10;;
71606;SDS011;60641;53.556;9.914;2022-08-19T09:47:05;13.60;;;6.60;;
71606;SDS011;60641;53.556;9.914;2022-08-19T09:49:32;14.50;;;6.70;;
71606;SDS011;60641;53.556;9.914;2022-08-19T09:51:59;14.60;;;7.00;;
71606;SDS011;60641;53.556;9.914;2022-08-19T09:54:26;12.20;;;6.10;;
71606;SDS011;60641;53.556;9.914;2022-08-19T09:56:53;15.60;;;6.50;;
71606;SDS011;60641;53.556;9.914;2022-08-19T09:59:20;15.70;;;6.20;;
71606;SDS011;60641;53.556;9.914;2022-08-19T10:01:47;16.50;;;7.00;;
71606;SDS011;60641;53.556;9.914;2022-08-19T10:04:13;18.20;;;7.10;;
71606;SDS011;60641;53.556;9.914;2022-08-19T10:06:40;15.90;;;7.50;;
71606;SDS011;60641;53.556;9.914;2022-08-19T10:09:08;19.50;;;8.20;;
71606;SDS011;60641;53.556;9.914;2022-08-19T10:11:39;16.80;;;8.40;;
71606;SDS011;60641;53.556;9.914;2022-08-19T10:14:06;18.60;;;8.20;;
71606;SDS011;60641;53.556;9.914;2022-08-19T10:16:35;14.00;;;7.70;;
71606;SDS011;60641;53.556;9.914;2022-08-19T10:19:02;16.70;;;8.20;;
71606;SDS011;60641;53.556;9.914;2022-08-19T10:21:30;15.10;;;8.00;;
71606;SDS011;60641;53.556;9.914;2022-08-19T10:23:59;15.60;;;7.50;;
71606;SDS011;60641;53.556;9.914;2022-08-19T10:26:28;17.00;;;8.10;;
71606;SDS011;60641;53.556;9.914;2022-08-19T10:28:59;15.40;;;8.70;;
71606;SDS011;60641;53.556;9.914;2022-08-19T10:31:28;15.10;;;7.50;;
71606;SDS011;60641;53.556;9.914;2022-08-19T10:33:56;15.10;;;7.20;;
71606;SDS011;60641;53.556;9.914;2022-08-19T10:36:25;16.70;;;8.40;;
71606;SDS011;60641;53.556;9.914;2022-08-19T10:38:55;17.10;;;8.80;;
71606;SDS011;60641;53.556;9.914;2022-08-19T10:41:27;16.90;;;8.60;;
71606;SDS011;60641;53.556;9.914;2022-08-19T10:43:57;16.30;;;8.00;;
71606;SDS011;60641;53.556;9.914;2022-08-19T10:46:31;15.70;;;8.80;;
71606;SDS011;60641;53.556;9.914;2022-08-19T10:49:02;16.00;;;8.30;;
71606;SDS011;60641;53.556;9.914;2022-08-19T10:51:30;15.90;;;8.50;;
71606;SDS011;60641;53.556;9.914;2022-08-19T10:54:16;17.10;;;8.20;;
71606;SDS011;60641;53.556;9.914;2022-08-19T10:56:43;16.20;;;8.50;;
71606;SDS011;60641;53.556;9.914;2022-08-19T10:59:25;16.10;;;8.50;;
71606;SDS011;60641;53.556;9.914;2022-08-19T11:01:54;16.30;;;8.80;;
71606;SDS011;60641;53.556;9.914;2022-08-19T11:04:24;17.10;;;8.70;;
71606;SDS011;60641;53.556;9.914;2022-08-19T11:06:50;18.90;;;9.00;;
71606;SDS011;60641;53.556;9.914;2022-08-19T11:09:19;16.70;;;8.60;;
71606;SDS011;60641;53.556;9.914;2022-08-19T11:11:47;16.90;;;8.40;;
71606;SDS011;60641;53.556;9.914;2022-08-19T11:14:14;15.30;;;7.80;;
71606;SDS011;60641;53.556;9.914;2022-08-19T11:16:42;19.10;;;9.10;;
71606;SDS011;60641;53.556;9.914;2022-08-19T11:19:09;16.50;;;7.90;;
71606;SDS011;60641;53.556;9.914;2022-08-19T11:21:37;18.30;;;8.80;;
71606;SDS011;60641;53.556;9.914;2022-08-19T11:24:07;15.70;;;8.40;;
71606;SDS011;60641;53.556;9.914;2022-08-19T11:26:39;19.00;;;8.80;;
71606;SDS011;60641;53.556;9.914;2022-08-19T11:29:07;17.10;;;8.40;;
71606;SDS011;60641;53.556;9.914;2022-08-19T11:31:37;17.40;;;8.00;;
71606;SDS011;60641;53.556;9.914;2022-08-19T11:34:07;15.30;;;8.50;;
71606;SDS011;60641;53.556;9.914;2022-08-19T11:36:36;15.20;;;8.30;;
71606;SDS011;60641;53.556;9.914;2022-08-19T11:39:05;16.80;;;8.90;;
71606;SDS011;60641;53.556;9.914;2022-08-19T11:41:33;17.10;;;8.10;;
71606;SDS011;60641;53.556;9.914;2022-08-19T11:43:59;16.50;;;8.80;;
71606;SDS011;60641;53.556;9.914;2022-08-19T11:46:26;15.00;;;7.90;;
71606;SDS011;60641;53.556;9.914;2022-08-19T11:48:56;15.30;;;7.30;;
71606;SDS011;60641;53.556;9.914;2022-08-19T11:51:23;14.70;;;7.50;;
71606;SDS011;60641;53.556;9.914;2022-08-19T11:53:51;15.70;;;8.10;;
71606;SDS011;60641;53.556;9.914;2022-08-19T11:56:19;15.00;;;7.70;;
71606;SDS011;60641;53.556;9.914;2022-08-19T11:58:46;15.00;;;8.30;;
71606;SDS011;60641;53.556;9.914;2022-08-19T12:01:13;16.90;;;9.20;;
71606;SDS011;60641;53.556;9.914;2022-08-19T12:03:45;14.50;;;8.20;;
71606;SDS011;60641;53.556;9.914;2022-08-19T12:06:17;15.80;;;8.10;;
71606;SDS011;60641;53.556;9.914;2022-08-19T12:08:45;15.40;;;9.40;;
71606;SDS011;60641;53.556;9.914;2022-08-19T12:11:13;14.50;;;8.70;;
71606;SDS011;60641;53.556;9.914;2022-08-19T12:13:40;13.40;;;8.20;;
71606;SDS011;60641;53.556;9.914;2022-08-19T12:16:08;13.60;;;8.20;;
71606;SDS011;60641;53.556;9.914;2022-08-19T12:18:37;14.10;;;8.40;;
71606;SDS011;60641;53.556;9.914;2022-08-19T12:21:09;13.80;;;7.80;;
71606;SDS011;60641;53.556;9.914;2022-08-19T12:23:37;14.60;;;9.00;;
71606;SDS011;60641;53.556;9.914;2022-08-19T12:26:03;16.10;;;8.50;;
71606;SDS011;60641;53.556;9.914;2022-08-19T12:28:30;13.70;;;7.50;;
71606;SDS011;60641;53.556;9.914;2022-08-19T12:30:57;12.20;;;7.50;;
71606;SDS011;60641;53.556;9.914;2022-08-19T12:33:24;13.70;;;8.20;;
71606;SDS011;60641;53.556;9.914;2022-08-19T12:35:54;13.30;;;7.50;;
71606;SDS011;60641;53.556;9.914;2022-08-19T12:38:21;14.30;;;8.10;;
71606;SDS011;60641;53.556;9.914;2022-08-19T12:40:50;14.90;;;7.90;;
71606;SDS011;60641;53.556;9.914;2022-08-19T12:43:17;13.70;;;7.60;;
71606;SDS011;60641;53.556;9.914;2022-08-19T12:45:46;12.30;;;7.70;;
71606;SDS011;60641;53.556;9.914;2022-08-19T12:48:13;15.10;;;8.30;;
71606;SDS011;60641;53.556;9.914;2022-08-19T12:50:40;13.00;;;8.10;;
71606;SDS011;60641;53.556;9.914;2022-08-19T12:53:08;12.30;;;7.50;;
71606;SDS011;60641;53.556;9.914;2022-08-19T12:55:34;14.10;;;8.40;;
71606;SDS011;60641;53.556;9.914;2022-08-19T12:58:01;15.40;;;9.40;;
71606;SDS011;60641;53.556;9.914;2022-08-19T13:00:27;13.20;;;7.70;;
71606;SDS011;60641;53.556;9.914;2022-08-19T13:02:54;13.50;;;7.40;;
71606;SDS011;60641;53.556;9.914;2022-08-19T13:05:22;11.70;;;7.40;;
71606;SDS011;60641;53.556;9.914;2022-08-19T13:07:52;11.70;;;7.30;;
71606;SDS011;60641;53.556;9.914;2022-08-19T13:10:22;14.00;;;8.40;;
71606;SDS011;60641;53.556;9.914;2022-08-19T13:12:50;13.20;;;8.40;;
71606;SDS011;60641;53.556;9.914;2022-08-19T13:15:17;13.60;;;8.40;;
71606;SDS011;60641;53.556;9.914;2022-08-19T13:17:48;12.40;;;8.10;;
71606;SDS011;60641;53.556;9.914;2022-08-19T13:20:17;13.80;;;8.10;;
71606;SDS011;60641;53.556;9.914;2022-08-19T13:22:45;12.50;;;8.30;;
71606;SDS011;60641;53.556;9.914;2022-08-19T13:25:12;13.40;;;8.00;;
71606;SDS011;60641;53.556;9.914;2022-08-19T13:27:39;15.10;;;8.40;;
71606;SDS011;60641;53.556;9.914;2022-08-19T13:30:07;14.40;;;8.40;;
71606;SDS011;60641;53.556;9.914;2022-08-19T13:32:53;14.10;;;8.80;;
71606;SDS011;60641;53.556;9.914;2022-08-19T13:35:38;12.90;;;8.20;;
71606;SDS011;60641;53.556;9.914;2022-08-19T13:38:06;12.70;;;8.30;;
71606;SDS011;60641;53.556;9.914;2022-08-19T13:40:33;14.70;;;8.90;;
71606;SDS011;60641;53.556;9.914;2022-08-19T13:43:00;12.20;;;7.80;;
71606;SDS011;60641;53.556;9.914;2022-08-19T13:45:28;13.60;;;8.20;;
71606;SDS011;60641;53.556;9.914;2022-08-19T13:47:56;13.20;;;8.20;;
71606;SDS011;60641;53.556;9.914;2022-08-19T13:50:24;14.00;;;8.20;;
71606;SDS011;60641;53.556;9.914;2022-08-19T13:52:55;13.00;;;8.80;;
71606;SDS011;60641;53.556;9.914;2022-08-19T13:55:22;13.50;;;8.40;;
71606;SDS011;60641;53.556;9.914;2022-08-19T13:57:50;15.10;;;8.90;;
71606;SDS011;60641;53.556;9.914;2022-08-19T14:00:21;13.00;;;9.10;;
71606;SDS011;60641;53.556;9.914;2022-08-19T14:02:50;14.50;;;9.20;;
71606;SDS011;60641;53.556;9.914;2022-08-19T14:05:18;13.80;;;8.10;;
71606;SDS011;60641;53.556;9.914;2022-08-19T14:07:45;13.70;;;9.40;;
71606;SDS011;60641;53.556;9.914;2022-08-19T14:10:12;13.20;;;9.00;;
71606;SDS011;60641;53.556;9.914;2022-08-19T14:12:39;16.50;;;9.40;;
71606;SDS011;60641;53.556;9.914;2022-08-19T14:15:07;13.80;;;9.30;;
71606;SDS011;60641;53.556;9.914;2022-08-19T14:17:36;13.70;;;8.60;;
71606;SDS011;60641;53.556;9.914;2022-08-19T14:20:04;13.40;;;8.50;;
71606;SDS011;60641;53.556;9.914;2022-08-19T14:22:35;15.40;;;9.60;;
71606;SDS011;60641;53.556;9.914;2022-08-19T14:25:04;15.30;;;8.50;;
71606;SDS011;60641;53.556;9.914;2022-08-19T14:27:33;14.60;;;8.30;;
71606;SDS011;60641;53.556;9.914;2022-08-19T14:30:00;12.00;;;8.20;;
71606;SDS011;60641;53.556;9.914;2022-08-19T14:32:27;13.50;;;9.00;;
71606;SDS011;60641;53.556;9.914;2022-08-19T14:34:54;12.80;;;8.90;;
71606;SDS011;60641;53.556;9.914;2022-08-19T14:37:20;12.50;;;8.70;;
71606;SDS011;60641;53.556;9.914;2022-08-19T14:39:48;15.00;;;9.20;;
71606;SDS011;60641;53.556;9.914;2022-08-19T14:42:14;13.60;;;8.90;;
71606;SDS011;60641;53.556;9.914;2022-08-19T14:44:41;14.50;;;9.20;;
71606;SDS011;60641;53.556;9.914;2022-08-19T14:47:08;12.60;;;8.50;;
71606;SDS011;60641;53.556;9.914;2022-08-19T14:49:35;12.60;;;8.40;;
71606;SDS011;60641;53.556;9.914;2022-08-19T14:52:02;14.70;;;8.60;;
71606;SDS011;60641;53.556;9.914;2022-08-19T14:54:29;13.10;;;8.60;;